createdAt,value
2022-11-26T00:00:31.286Z,11.90
2022-11-26T00:02:59.187Z,11.43
2022-11-26T00:05:31.878Z,11.73
2022-11-26T00:08:01.909Z,9.95
2022-11-26T00:10:35.617Z,14.05
2022-11-26T00:13:03.496Z,10.25
2022-11-26T00:15:32.552Z,11.90
2022-11-26T00:18:00.658Z,11.13
2022-11-26T00:20:31.802Z,9.85
2022-11-26T00:23:03.203Z,11.20
2022-11-26T00:25:40.448Z,11.48
2022-11-26T00:28:28.925Z,9.27
2022-11-26T00:30:59.416Z,11.57
2022-11-26T00:33:28.023Z,11.98
2022-11-26T00:35:58.736Z,12.02
2022-11-26T00:38:27.037Z,9.80
2022-11-26T00:40:56.240Z,9.07
2022-11-26T00:43:24.116Z,8.82
2022-11-26T00:45:52.050Z,9.85
2022-11-26T00:48:20.246Z,10.38
2022-11-26T00:50:50.338Z,12.40
2022-11-26T00:53:21.797Z,10.13
2022-11-26T00:55:50.879Z,9.27
2022-11-26T00:58:27.186Z,10.40
2022-11-26T01:00:56.653Z,9.13
2022-11-26T01:03:24.971Z,10.95
2022-11-26T01:05:55.010Z,11.20
2022-11-26T01:08:29.995Z,9.00
2022-11-26T01:10:58.067Z,10.93
2022-11-26T01:13:27.753Z,10.30
2022-11-26T01:15:56.159Z,9.77
2022-11-26T01:18:25.330Z,11.07
2022-11-26T01:20:53.105Z,10.68
2022-11-26T01:23:21.341Z,10.43
2022-11-26T01:25:49.325Z,9.23
2022-11-26T01:28:19.411Z,10.13
2022-11-26T01:30:48.658Z,10.93
2022-11-26T01:33:16.458Z,9.05
2022-11-26T01:35:44.457Z,11.02
2022-11-26T01:38:15.072Z,9.73
2022-11-26T01:40:54.133Z,10.38
2022-11-26T01:43:26.901Z,8.67
2022-11-26T01:45:57.396Z,9.38
2022-11-26T01:48:29.040Z,10.63
2022-11-26T01:51:05.718Z,8.70
2022-11-26T01:53:44.197Z,9.30
2022-11-26T01:56:23.187Z,10.68
2022-11-26T01:58:55.465Z,9.65
2022-11-26T02:01:24.845Z,8.30
2022-11-26T02:04:03.474Z,11.05
2022-11-26T02:06:33.419Z,10.33
2022-11-26T02:09:03.450Z,10.65
2022-11-26T02:11:31.281Z,9.10
2022-11-26T02:14:01.981Z,10.60
2022-11-26T02:16:47.001Z,8.02
2022-11-26T02:19:46.459Z,8.77
2022-11-26T02:22:28.928Z,9.30
2022-11-26T02:25:06.097Z,10.00
2022-11-26T02:27:54.862Z,10.52
2022-11-26T02:30:24.111Z,9.40
2022-11-26T02:32:59.142Z,8.20
2022-11-26T02:35:34.170Z,7.90
2022-11-26T02:38:06.293Z,7.85
2022-11-26T02:40:34.179Z,9.23
2022-11-26T02:43:02.121Z,8.32
2022-11-26T02:45:34.316Z,7.55
2022-11-26T02:48:04.412Z,10.33
2022-11-26T02:50:37.610Z,9.18
2022-11-26T02:53:06.298Z,8.35
2022-11-26T02:55:39.593Z,7.95
2022-11-26T02:58:08.054Z,7.72
2022-11-26T03:00:42.210Z,10.38
2022-11-26T03:03:17.021Z,6.88
2022-11-26T03:05:44.924Z,8.43
2022-11-26T03:08:12.850Z,8.05
2022-11-26T03:10:40.653Z,8.38
2022-11-26T03:13:08.494Z,8.27
2022-11-26T03:15:37.633Z,8.23
2022-11-26T03:18:05.626Z,7.05
2022-11-26T03:20:33.456Z,6.85
2022-11-26T03:23:01.501Z,7.90
2022-11-26T03:25:29.478Z,9.00
2022-11-26T03:27:57.501Z,8.40
2022-11-26T03:30:25.525Z,9.35
2022-11-26T03:32:54.708Z,8.77
2022-11-26T03:35:22.501Z,9.63
2022-11-26T03:37:50.313Z,8.70
2022-11-26T03:40:18.276Z,7.50
2022-11-26T03:42:46.381Z,10.55
2022-11-26T03:45:14.207Z,9.73
2022-11-26T03:47:42.007Z,8.02
2022-11-26T03:50:11.830Z,7.20
2022-11-26T03:52:39.630Z,8.70
2022-11-26T03:55:09.231Z,8.82
2022-11-26T03:57:37.443Z,9.35
2022-11-26T04:00:08.678Z,11.30
2022-11-26T04:02:36.476Z,7.85
2022-11-26T04:05:04.961Z,10.25
2022-11-26T04:07:34.145Z,10.40
2022-11-26T04:10:01.959Z,9.15
2022-11-26T04:12:29.800Z,8.52
2022-11-26T04:14:57.554Z,11.25
2022-11-26T04:17:25.322Z,10.35
2022-11-26T04:19:53.559Z,10.98
2022-11-26T04:22:21.354Z,11.00
2022-11-26T04:24:50.470Z,9.70
2022-11-26T04:27:18.296Z,9.85
2022-11-26T04:29:46.044Z,9.32
2022-11-26T04:32:13.816Z,10.13
2022-11-26T04:34:41.609Z,11.60
2022-11-26T04:37:09.433Z,9.63
2022-11-26T04:39:37.401Z,10.27
2022-11-26T04:42:06.641Z,11.13
2022-11-26T04:44:34.400Z,10.63
2022-11-26T04:47:02.243Z,12.32
2022-11-26T04:49:30.041Z,11.18
2022-11-26T04:51:58.046Z,11.48
2022-11-26T04:54:25.822Z,8.48
2022-11-26T04:56:53.866Z,10.70
2022-11-26T04:59:22.992Z,9.93
2022-11-26T05:01:50.774Z,9.35
2022-11-26T05:04:18.661Z,9.57
2022-11-26T05:06:46.452Z,10.48
2022-11-26T05:09:14.273Z,11.40
2022-11-26T05:11:42.378Z,11.55
2022-11-26T05:14:10.212Z,10.13
2022-11-26T05:16:39.488Z,13.00
2022-11-26T05:19:07.337Z,11.82
2022-11-26T05:21:35.082Z,12.60
2022-11-26T05:24:02.887Z,13.18
2022-11-26T05:26:30.763Z,11.02
2022-11-26T05:28:58.529Z,11.75
2022-11-26T05:31:26.515Z,12.82
2022-11-26T05:33:55.657Z,13.27
2022-11-26T05:36:23.478Z,11.48
2022-11-26T05:38:51.295Z,12.63
2022-11-26T05:41:19.069Z,12.10
2022-11-26T05:43:46.928Z,10.98
2022-11-26T05:46:17.262Z,13.13
2022-11-26T05:48:45.638Z,11.32
2022-11-26T05:51:14.900Z,12.68
2022-11-26T05:53:42.686Z,9.70
2022-11-26T05:56:10.801Z,10.88
2022-11-26T05:58:38.572Z,12.50
2022-11-26T06:01:09.135Z,13.05
2022-11-26T06:03:37.675Z,12.27
2022-11-26T06:06:06.200Z,12.55
2022-11-26T06:08:35.612Z,12.18
2022-11-26T06:11:03.411Z,12.13
2022-11-26T06:13:31.185Z,12.43
2022-11-26T06:15:59.548Z,12.68
2022-11-26T06:18:27.542Z,11.27
2022-11-26T06:20:55.466Z,11.77
2022-11-26T06:23:23.359Z,13.65
2022-11-26T06:25:52.474Z,12.15
2022-11-26T06:28:20.355Z,11.30
2022-11-26T06:30:48.169Z,12.43
2022-11-26T06:33:15.936Z,10.95
2022-11-26T06:35:43.798Z,13.50
2022-11-26T06:38:12.310Z,11.13
2022-11-26T06:40:40.090Z,10.85
2022-11-26T06:43:09.428Z,10.07
2022-11-26T06:45:37.212Z,10.85
2022-11-26T06:48:05.302Z,13.20
2022-11-26T06:50:33.333Z,11.20
2022-11-26T06:53:01.217Z,9.37
2022-11-26T06:55:29.007Z,10.32
2022-11-26T06:57:56.782Z,9.20
2022-11-26T07:00:26.058Z,10.15
2022-11-26T07:02:53.886Z,10.75
2022-11-26T07:05:21.739Z,8.07
2022-11-26T07:07:49.583Z,7.68
2022-11-26T07:10:18.630Z,7.40
2022-11-26T07:12:46.502Z,8.70
2022-11-26T07:15:14.257Z,8.50
2022-11-26T07:17:43.386Z,7.82
2022-11-26T07:20:12.029Z,6.63
2022-11-26T07:22:39.978Z,7.88
2022-11-26T07:25:12.501Z,6.78
2022-11-26T07:27:41.073Z,9.23
2022-11-26T07:30:10.420Z,5.80
2022-11-26T07:32:38.360Z,8.05
2022-11-26T07:35:08.448Z,5.43
2022-11-26T07:37:36.369Z,5.35
2022-11-26T07:40:05.633Z,6.57
2022-11-26T07:42:33.499Z,5.53
2022-11-26T07:45:01.368Z,5.67
2022-11-26T07:47:29.137Z,6.82
2022-11-26T07:49:56.899Z,4.13
2022-11-26T07:52:26.056Z,4.82
2022-11-26T07:54:53.878Z,4.93
2022-11-26T07:57:22.885Z,6.45
2022-11-26T07:59:50.717Z,4.97
2022-11-26T08:02:19.016Z,5.53
2022-11-26T08:04:46.845Z,4.00
2022-11-26T08:07:20.097Z,5.80
2022-11-26T08:09:53.646Z,6.00
2022-11-26T08:12:21.480Z,3.90
2022-11-26T08:14:49.284Z,4.88
2022-11-26T08:17:17.119Z,4.07
2022-11-26T08:19:45.045Z,4.73
2022-11-26T08:22:12.849Z,4.47
2022-11-26T08:24:40.880Z,4.85
2022-11-26T08:27:10.356Z,6.38
2022-11-26T08:29:38.527Z,4.90
2022-11-26T08:32:06.431Z,6.53
2022-11-26T08:34:34.550Z,4.18
2022-11-26T08:37:02.321Z,4.55
2022-11-26T08:39:30.332Z,5.82
2022-11-26T08:41:58.162Z,6.05
2022-11-26T08:44:27.362Z,5.03
2022-11-26T08:46:55.168Z,6.55
2022-11-26T08:49:22.993Z,6.07
2022-11-26T08:51:50.799Z,5.47
2022-11-26T08:54:18.585Z,5.50
2022-11-26T08:56:46.396Z,6.65
2022-11-26T08:59:14.245Z,6.97
2022-11-26T09:01:43.451Z,6.93
2022-11-26T09:04:11.293Z,6.40
2022-11-26T09:06:40.786Z,8.60
2022-11-26T09:09:15.526Z,5.57
2022-11-26T09:11:46.049Z,7.80
2022-11-26T09:14:15.072Z,7.85
2022-11-26T09:16:44.494Z,6.32
2022-11-26T09:19:13.738Z,6.53
2022-11-26T09:21:41.850Z,4.20
2022-11-26T09:24:09.742Z,7.88
2022-11-26T09:26:37.736Z,7.05
2022-11-26T09:29:05.861Z,5.20
2022-11-26T09:31:34.147Z,5.03
2022-11-26T09:34:03.765Z,6.05
2022-11-26T09:36:31.706Z,5.80
2022-11-26T09:39:00.589Z,6.40
2022-11-26T09:41:40.541Z,6.20
2022-11-26T09:44:23.540Z,6.15
2022-11-26T09:47:13.817Z,7.70
2022-11-26T09:49:54.433Z,8.15
2022-11-26T09:52:24.545Z,8.52
2022-11-26T09:54:58.952Z,6.85
2022-11-26T09:57:31.893Z,8.20
2022-11-26T09:59:59.781Z,8.05
2022-11-26T10:02:27.598Z,6.85
2022-11-26T10:04:56.813Z,9.55
2022-11-26T10:07:41.688Z,6.60
2022-11-26T10:10:17.594Z,6.63
2022-11-26T10:13:17.237Z,7.55
2022-11-26T10:15:51.305Z,6.78
2022-11-26T10:18:29.501Z,8.85
2022-11-26T10:21:12.298Z,8.90
2022-11-26T10:23:46.182Z,6.23
2022-11-26T10:26:17.777Z,7.90
2022-11-26T10:28:47.584Z,10.48
2022-11-26T10:31:21.996Z,9.50
2022-11-26T10:33:56.733Z,7.47
2022-11-26T10:36:28.689Z,9.52
2022-11-26T10:38:57.204Z,14.50
2022-11-26T10:41:28.882Z,11.38
2022-11-26T10:43:56.691Z,12.73
2022-11-26T10:46:37.497Z,13.77
2022-11-26T10:49:23.440Z,14.00
2022-11-26T10:51:55.616Z,10.75
2022-11-26T10:54:27.205Z,13.82
2022-11-26T10:56:56.401Z,12.70
2022-11-26T10:59:28.057Z,14.77
2022-11-26T11:02:01.890Z,11.82
2022-11-26T11:04:33.133Z,12.80
2022-11-26T11:07:05.197Z,14.55
2022-11-26T11:09:37.834Z,11.35
2022-11-26T11:12:21.836Z,12.98
2022-11-26T11:14:51.613Z,12.80
2022-11-26T11:17:34.080Z,11.60
2022-11-26T11:20:21.979Z,13.35
2022-11-26T11:22:59.391Z,10.73
2022-11-26T11:25:30.822Z,14.55
2022-11-26T11:28:08.963Z,12.18
2022-11-26T11:30:41.470Z,11.57
2022-11-26T11:33:20.569Z,12.85
2022-11-26T11:36:01.435Z,14.35
2022-11-26T11:38:32.565Z,13.32
2022-11-26T11:41:05.459Z,14.88
2022-11-26T11:43:37.637Z,14.07
2022-11-26T11:46:17.301Z,13.98
2022-11-26T11:48:54.276Z,13.77
2022-11-26T11:51:34.082Z,14.73
2022-11-26T11:54:14.790Z,15.80
2022-11-26T11:56:47.881Z,12.38
2022-11-26T11:59:47.504Z,13.73
2022-11-26T12:02:34.685Z,13.55
2022-11-26T12:05:23.786Z,13.55
2022-11-26T12:07:59.335Z,12.65
2022-11-26T12:10:35.694Z,13.02
2022-11-26T12:13:07.886Z,14.80
2022-11-26T12:15:43.070Z,14.95
2022-11-26T12:18:23.565Z,11.87
2022-11-26T12:20:54.723Z,13.07
2022-11-26T12:23:30.275Z,12.45
2022-11-26T12:26:07.001Z,11.50
2022-11-26T12:28:39.752Z,13.27
2022-11-26T12:31:14.337Z,12.07
2022-11-26T12:33:47.257Z,12.98
2022-11-26T12:36:20.649Z,12.00
2022-11-26T12:38:53.299Z,13.80
2022-11-26T12:41:26.509Z,14.57
2022-11-26T12:44:00.113Z,12.65
2022-11-26T12:46:34.657Z,13.98
2022-11-26T12:49:13.299Z,11.35
2022-11-26T12:51:46.866Z,12.07
2022-11-26T12:54:20.729Z,14.57
2022-11-26T12:56:58.083Z,12.90
2022-11-26T12:59:30.639Z,12.70
2022-11-26T13:01:58.912Z,13.98
2022-11-26T13:04:38.109Z,14.45
2022-11-26T13:07:15.170Z,14.80
2022-11-26T13:10:00.038Z,11.88
2022-11-26T13:12:39.965Z,12.70
2022-11-26T13:15:18.438Z,14.20
2022-11-26T13:17:49.099Z,11.95
2022-11-26T13:20:36.519Z,14.15
2022-11-26T13:23:19.309Z,13.10
2022-11-26T13:26:08.423Z,13.45
2022-11-26T13:28:59.084Z,13.20
2022-11-26T13:31:43.252Z,11.27
2022-11-26T13:34:26.886Z,13.18
2022-11-26T13:37:22.390Z,13.10
2022-11-26T13:40:20.104Z,11.90
2022-11-26T13:43:16.829Z,11.30
2022-11-26T13:46:07.203Z,12.98
2022-11-26T13:48:42.932Z,9.98
2022-11-26T13:51:18.972Z,10.15
2022-11-26T13:53:51.629Z,9.93
2022-11-26T13:56:23.322Z,10.23
2022-11-26T13:58:55.860Z,10.90
2022-11-26T14:01:36.713Z,10.45
2022-11-26T14:04:07.670Z,9.13
2022-11-26T14:06:38.209Z,8.77
2022-11-26T14:09:06.820Z,9.68
2022-11-26T14:11:58.043Z,11.82
2022-11-26T14:14:34.290Z,12.25
2022-11-26T14:17:18.731Z,9.35
2022-11-26T14:20:06.728Z,12.23
2022-11-26T14:22:36.545Z,11.32
2022-11-26T14:25:07.498Z,10.43
2022-11-26T14:27:37.225Z,9.73
2022-11-26T14:30:26.840Z,7.77
2022-11-26T14:33:14.861Z,10.25
2022-11-26T14:35:54.721Z,12.85
2022-11-26T14:38:27.630Z,10.17
2022-11-26T14:41:00.329Z,12.07
2022-11-26T14:43:29.376Z,13.70
2022-11-26T14:46:06.740Z,11.82
2022-11-26T14:48:42.068Z,10.70
2022-11-26T14:51:10.216Z,9.45
2022-11-26T14:53:44.005Z,9.63
2022-11-26T14:56:12.402Z,9.85
2022-11-26T14:58:44.192Z,9.63
2022-11-26T15:01:20.736Z,9.77
2022-11-26T15:03:58.560Z,9.13
2022-11-26T15:06:28.909Z,9.90
2022-11-26T15:09:07.804Z,11.50
2022-11-26T15:11:38.746Z,10.55
2022-11-26T15:14:06.690Z,11.20
2022-11-26T15:16:37.237Z,8.02
2022-11-26T15:19:07.626Z,9.98
2022-11-26T15:21:36.426Z,10.07
2022-11-26T15:24:09.606Z,11.13
2022-11-26T15:26:39.580Z,9.95
2022-11-26T15:29:32.961Z,10.02
2022-11-26T15:32:01.101Z,8.02
2022-11-26T15:34:32.573Z,11.07
2022-11-26T15:37:00.444Z,10.82
2022-11-26T15:39:30.669Z,10.40
2022-11-26T15:42:03.738Z,9.93
2022-11-26T15:44:35.447Z,13.07
2022-11-26T15:47:07.095Z,11.40
2022-11-26T15:49:39.002Z,7.75
2022-11-26T15:52:10.126Z,10.77
2022-11-26T15:55:10.930Z,11.68
2022-11-26T15:57:32.639Z,8.63
2022-11-26T16:00:04.025Z,9.83
2022-11-26T16:02:32.176Z,9.80
2022-11-26T16:05:02.507Z,11.48
2022-11-26T16:07:32.084Z,10.73
2022-11-26T16:10:23.875Z,11.02
2022-11-26T16:13:20.297Z,9.77
2022-11-26T16:15:52.825Z,11.23
2022-11-26T16:18:23.483Z,10.23
2022-11-26T16:21:03.634Z,11.80
2022-11-26T16:23:32.013Z,13.90
2022-11-26T16:26:13.834Z,11.63
2022-11-26T16:28:41.866Z,11.77
2022-11-26T16:31:09.952Z,12.23
2022-11-26T16:33:37.988Z,13.00
2022-11-26T16:36:21.501Z,11.70
2022-11-26T16:38:50.286Z,11.97
2022-11-26T16:41:19.931Z,13.60
2022-11-26T16:43:48.020Z,12.88
2022-11-26T16:46:18.437Z,13.32
2022-11-26T16:51:17.019Z,12.77
2022-11-26T16:53:45.178Z,16.80
2022-11-26T16:56:20.332Z,11.27
2022-11-26T16:58:48.329Z,13.18
2022-11-26T17:01:16.229Z,13.65
2022-11-26T17:03:44.437Z,14.68
2022-11-26T17:06:18.437Z,11.30
2022-11-26T17:11:34.093Z,16.27
2022-11-26T17:14:01.839Z,15.75
2022-11-26T17:16:30.117Z,15.15
2022-11-26T17:18:57.968Z,14.07
2022-11-26T17:21:27.077Z,15.55
2022-11-26T17:23:54.849Z,13.55
2022-11-26T17:26:26.025Z,15.50
2022-11-26T17:28:53.836Z,16.30
2022-11-26T17:31:21.622Z,13.30
2022-11-26T17:33:50.606Z,12.88
2022-11-26T17:36:20.108Z,13.75
2022-11-26T17:38:49.930Z,16.80
2022-11-26T17:41:18.145Z,17.10
2022-11-26T17:43:46.153Z,14.43
2022-11-26T17:46:19.334Z,15.15
2022-11-26T17:48:48.069Z,14.73
2022-11-26T17:51:16.185Z,14.80
2022-11-26T17:53:44.930Z,16.77
2022-11-26T17:56:19.205Z,14.25
2022-11-26T17:58:47.731Z,14.88
2022-11-26T18:01:16.483Z,17.35
2022-11-26T18:03:44.939Z,15.02
2022-11-26T18:06:16.765Z,19.75
2022-11-26T18:08:44.611Z,17.95
2022-11-26T18:11:12.832Z,17.90
2022-11-26T18:13:42.058Z,19.50
2022-11-26T18:16:10.031Z,19.65
2022-11-26T18:18:37.902Z,17.83
2022-11-26T18:21:06.409Z,19.90
2022-11-26T18:23:34.552Z,22.38
2022-11-26T18:26:03.063Z,21.77
2022-11-26T18:28:31.205Z,20.65
2022-11-26T18:31:00.449Z,21.60
2022-11-26T18:33:28.862Z,22.02
2022-11-26T18:35:57.816Z,20.83
2022-11-26T18:38:29.094Z,21.88
2022-11-26T18:41:03.596Z,20.30
2022-11-26T18:43:32.978Z,19.30
2022-11-26T18:46:05.457Z,19.17
2022-11-26T18:48:36.416Z,17.92
2022-11-26T18:51:05.200Z,18.70
2022-11-26T18:53:34.468Z,20.67
2022-11-26T18:56:07.351Z,20.50
2022-11-26T18:58:36.909Z,19.75
2022-11-26T19:01:13.653Z,17.55
2022-11-26T19:03:44.119Z,20.60
2022-11-26T19:06:15.214Z,19.05
2022-11-26T19:08:43.986Z,19.58
2022-11-26T19:11:14.615Z,18.67
2022-11-26T19:13:42.716Z,19.00
2022-11-26T19:16:16.827Z,20.30
2022-11-26T19:18:46.358Z,19.00
2022-11-26T19:21:24.336Z,18.10
2022-11-26T19:23:53.425Z,16.80
2022-11-26T19:26:22.178Z,17.95
2022-11-26T19:28:51.465Z,18.33
2022-11-26T19:31:23.228Z,17.90
2022-11-26T19:33:55.217Z,19.00
2022-11-26T19:36:23.467Z,19.23
2022-11-26T19:38:56.043Z,18.63
2022-11-26T19:41:26.061Z,17.65
2022-11-26T19:43:54.565Z,17.23
2022-11-26T19:46:25.732Z,17.60
2022-11-26T19:48:55.388Z,18.38
2022-11-26T19:51:26.212Z,18.63
2022-11-26T19:53:56.471Z,17.90
2022-11-26T19:56:26.578Z,18.40
2022-11-26T19:58:57.983Z,19.63
2022-11-26T20:01:30.373Z,19.08
2022-11-26T20:03:59.818Z,17.25
2022-11-26T20:06:29.204Z,18.23
2022-11-26T20:08:58.996Z,19.25
2022-11-26T20:11:27.570Z,18.58
2022-11-26T20:13:56.057Z,18.20
2022-11-26T20:16:25.937Z,21.63
2022-11-26T20:18:55.706Z,19.93
2022-11-26T20:21:26.493Z,20.02
2022-11-26T20:23:56.374Z,20.40
2022-11-26T20:26:26.269Z,21.13
2022-11-26T20:28:55.003Z,19.17
2022-11-26T20:31:24.702Z,22.00
2022-11-26T20:33:53.234Z,19.00
2022-11-26T20:36:23.420Z,20.23
2022-11-26T20:38:53.407Z,20.90
2022-11-26T20:41:21.349Z,20.92
2022-11-26T20:43:53.547Z,19.42
2022-11-26T20:46:26.117Z,19.13
2022-11-26T20:48:54.174Z,19.55
2022-11-26T20:51:23.977Z,19.83
2022-11-26T20:53:52.978Z,17.95
2022-11-26T20:56:22.711Z,17.37
2022-11-26T20:58:52.317Z,17.98
2022-11-26T21:01:22.697Z,17.52
2022-11-26T21:03:51.313Z,19.73
2022-11-26T21:06:27.591Z,18.90
2022-11-26T21:08:59.809Z,18.83
2022-11-26T21:11:28.196Z,17.98
2022-11-26T21:13:56.185Z,21.75
2022-11-26T21:16:24.047Z,23.23
2022-11-26T21:18:54.163Z,25.05
2022-11-26T21:21:22.463Z,24.10
2022-11-26T21:23:50.279Z,23.85
2022-11-26T21:26:21.353Z,26.75
2022-11-26T21:28:51.580Z,23.42
2022-11-26T21:31:20.274Z,24.47
2022-11-26T21:33:49.133Z,23.85
2022-11-26T21:36:17.932Z,25.02
2022-11-26T21:38:49.270Z,21.60
2022-11-26T21:41:20.056Z,22.25
2022-11-26T21:43:49.090Z,23.60
2022-11-26T21:46:19.054Z,21.75
2022-11-26T21:48:47.250Z,21.50
2022-11-26T21:51:16.959Z,21.30
2022-11-26T21:53:45.045Z,20.63
2022-11-26T21:56:15.110Z,20.77
2022-11-26T21:58:44.672Z,22.48
2022-11-26T22:01:13.802Z,20.77
2022-11-26T22:03:43.148Z,21.20
2022-11-26T22:06:12.041Z,20.67
2022-11-26T22:08:40.253Z,20.25
2022-11-26T22:11:10.239Z,21.02
2022-11-26T22:13:38.099Z,19.70
2022-11-26T22:16:08.379Z,20.63
2022-11-26T22:18:38.205Z,18.85
2022-11-26T22:21:07.798Z,19.17
2022-11-26T22:23:35.572Z,19.20
2022-11-26T22:26:03.368Z,17.90
2022-11-26T22:28:31.490Z,18.52
2022-11-26T22:30:59.300Z,18.70
2022-11-26T22:33:28.502Z,19.65
2022-11-26T22:35:56.249Z,20.13
2022-11-26T22:38:24.029Z,21.75
2022-11-26T22:40:51.845Z,18.73
2022-11-26T22:43:19.655Z,20.48
2022-11-26T22:45:47.454Z,20.85
2022-11-26T22:48:15.291Z,18.90
2022-11-26T22:50:51.207Z,20.57
2022-11-26T22:53:19.197Z,20.20
2022-11-26T22:55:51.614Z,20.13
2022-11-26T22:58:20.269Z,19.38
2022-11-26T23:00:50.743Z,18.55
2022-11-26T23:03:20.019Z,19.60
2022-11-26T23:05:49.351Z,19.35
2022-11-26T23:08:18.278Z,18.45
2022-11-26T23:10:48.286Z,20.10
2022-11-26T23:13:17.375Z,17.98
2022-11-26T23:15:46.777Z,18.58
2022-11-26T23:18:16.566Z,17.73
2022-11-26T23:20:44.827Z,18.33
2022-11-26T23:23:14.394Z,18.05
2022-11-26T23:25:42.485Z,19.75
2022-11-26T23:28:10.506Z,17.55
2022-11-26T23:30:38.293Z,17.35
2022-11-26T23:33:06.100Z,18.20
2022-11-26T23:35:34.591Z,17.15
2022-11-26T23:38:02.342Z,17.60
2022-11-26T23:40:31.498Z,17.67
2022-11-26T23:43:03.358Z,18.83
2022-11-26T23:45:33.746Z,17.90
2022-11-26T23:48:01.534Z,18.73
2022-11-26T23:50:30.014Z,18.17
2022-11-26T23:52:57.765Z,17.17
2022-11-26T23:55:25.554Z,17.02
2022-11-26T23:57:54.685Z,18.30
